Time;durP1;ratioP1;P1;durP2;ratioP2;P2;SDS_P1;SDS_P2;PMS_P1;PMS_P2;Temp;Humidity;BMP_temperature;BMP_pressure;BME280_temperature;BME280_humidity;BME280_pressure;Samples;Min_cycle;Max_cycle;Signal;HPM_P1;HPM_P2
2021/04/10 00:01:15;;;;;;;5.55;3.25;;;7.40;74.90;;;;;;5134902;27;20245;-65
2021/04/10 00:03:41;;;;;;;3.92;1.92;;;7.50;74.70;;;;;;5135130;27;20203;-66
2021/04/10 00:06:07;;;;;;;6.90;3.30;;;7.50;74.80;;;;;;5134790;27;20632;-67
2021/04/10 00:08:32;;;;;;;4.03;2.87;;;7.50;75.20;;;;;;5135022;27;20283;-66
2021/04/10 00:10:58;;;;;;;4.70;3.27;;;7.40;75.30;;;;;;5134855;27;20163;-66
2021/04/10 00:13:23;;;;;;;6.00;3.17;;;7.50;75.90;;;;;;5134955;27;20195;-67
2021/04/10 00:15:49;;;;;;;6.20;4.90;;;7.40;75.50;;;;;;5134716;28;20210;-67
2021/04/10 00:18:16;;;;;;;7.18;2.78;;;7.50;75.30;;;;;;5134784;28;20217;-67
2021/04/10 00:20:41;;;;;;;5.63;3.35;;;7.40;75.80;;;;;;5116256;28;20547;-67
2021/04/10 00:23:07;;;;;;;10.80;5.10;;;7.40;75.80;;;;;;5134772;28;20199;-66
2021/04/10 00:25:32;;;;;;;4.67;3.33;;;7.40;76.00;;;;;;5134559;28;20518;-67
2021/04/10 00:27:58;;;;;;;3.33;2.43;;;7.40;76.30;;;;;;5116211;28;20306;-66
2021/04/10 00:30:24;;;;;;;5.53;2.03;;;7.30;76.40;;;;;;5134514;28;20517;-66
2021/04/10 00:32:50;;;;;;;3.90;2.88;;;7.30;76.40;;;;;;5134264;28;20206;-65
2021/04/10 00:35:15;;;;;;;5.40;2.83;;;7.30;76.80;;;;;;5135254;27;20167;-67
2021/04/10 00:37:41;;;;;;;2.87;2.57;;;7.30;77.00;;;;;;5138869;27;20178;-66
2021/04/10 00:40:08;;;;;;;3.27;2.97;;;7.20;77.40;;;;;;5138577;27;20198;-67
2021/04/10 00:42:35;;;;;;;6.25;2.53;;;7.20;77.40;;;;;;5138533;27;20187;-66
2021/04/10 00:45:01;;;;;;;3.55;2.53;;;7.10;77.90;;;;;;5138669;27;20182;-66
2021/04/10 00:47:26;;;;;;;3.65;2.15;;;7.10;77.80;;;;;;5138659;27;20579;-66
2021/04/10 00:49:52;;;;;;;3.70;2.33;;;7.10;78.10;;;;;;5138320;27;20261;-67
2021/04/10 00:52:19;;;;;;;3.60;3.30;;;7.10;78.00;;;;;;5138466;27;20203;-66
2021/04/10 00:54:47;;;;;;;1.98;1.77;;;7.10;78.50;;;;;;5119894;27;20199;-67
2021/04/10 00:57:13;;;;;;;8.10;3.25;;;7.10;78.50;;;;;;5119916;27;20178;-66
2021/04/10 00:59:38;;;;;;;4.90;3.07;;;7.00;78.60;;;;;;5138157;27;20229;-65
2021/04/10 01:02:05;;;;;;;5.97;3.57;;;7.10;78.60;;;;;;5138168;27;20259;-67
2021/04/10 01:04:31;;;;;;;4.65;2.80;;;7.00;79.10;;;;;;5138171;27;20273;-67
2021/04/10 01:06:57;;;;;;;3.10;2.30;;;7.00;78.70;;;;;;5138155;27;20195;-67
2021/04/10 01:09:22;;;;;;;3.47;2.77;;;7.00;78.90;;;;;;5138060;27;20274;-67
2021/04/10 01:12:17;;;;;;;18.93;2.97;;;7.00;79.80;;;;;;5119569;27;20197;-67
2021/04/10 01:14:58;;;;;;;2.47;2.28;;;7.10;79.30;;;;;;5111191;27;20211;-66
2021/04/10 01:17:38;;;;;;;5.28;2.33;;;7.00;80.10;;;;;;5119724;27;20187;-66
2021/04/10 01:20:23;;;;;;;4.40;2.38;;;7.00;80.10;;;;;;5137851;27;20611;-67
2021/04/10 01:23:30;;;;;;;6.68;2.78;;;7.10;80.50;;;;;;5138033;27;20206;-66
2021/04/10 01:25:55;;;;;;;5.80;3.15;;;7.10;81.40;;;;;;5137789;27;20171;-66
2021/04/10 01:28:52;;;;;;;6.53;3.03;;;7.00;81.80;;;;;;5138014;27;20212;-66
2021/04/10 01:31:21;;;;;;;5.40;3.13;;;6.90;82.00;;;;;;5137793;27;20163;-66
2021/04/10 01:33:54;;;;;;;6.35;2.85;;;6.90;82.30;;;;;;5137933;27;20588;-65
2021/04/10 01:36:25;;;;;;;10.70;4.55;;;6.80;82.40;;;;;;5137664;27;20159;-66
2021/04/10 01:38:52;;;;;;;3.67;3.35;;;6.80;82.70;;;;;;5137804;27;20211;-66
2021/04/10 01:41:19;;;;;;;3.22;2.13;;;6.80;82.50;;;;;;5137471;27;20167;-66
2021/04/10 01:43:47;;;;;;;2.70;2.47;;;6.80;82.80;;;;;;5137261;27;20251;-66
2021/04/10 01:46:14;;;;;;;5.82;3.63;;;6.80;83.00;;;;;;5137197;27;20231;-67
2021/04/10 01:48:42;;;;;;;4.05;3.03;;;6.80;83.00;;;;;;5136734;27;20187;-66
2021/04/10 01:51:08;;;;;;;4.47;2.97;;;6.70;83.60;;;;;;5118864;27;20233;-66
2021/04/10 01:53:35;;;;;;;3.33;2.50;;;6.70;83.80;;;;;;5137504;27;20293;-66
2021/04/10 01:56:03;;;;;;;7.75;3.70;;;6.60;84.10;;;;;;5137230;27;20171;-67
2021/04/10 01:58:29;;;;;;;5.70;4.10;;;6.50;84.40;;;;;;5136882;27;20207;-66
2021/04/10 02:00:57;;;;;;;4.97;3.45;;;6.50;85.00;;;;;;5118642;27;20174;-66
2021/04/10 02:03:23;;;;;;;5.20;3.45;;;6.40;85.30;;;;;;5137225;27;20203;-67
2021/04/10 02:05:50;;;;;;;3.97;2.88;;;6.30;85.80;;;;;;5136900;27;20221;-66
2021/04/10 02:08:19;;;;;;;5.35;3.10;;;6.20;86.30;;;;;;5137078;27;20195;-67
2021/04/10 02:10:46;;;;;;;4.57;2.95;;;6.20;86.80;;;;;;5136982;27;20756;-67
2021/04/10 02:13:13;;;;;;;3.30;2.95;;;6.10;87.40;;;;;;5118456;27;20207;-66
2021/04/10 02:15:39;;;;;;;4.35;3.92;;;6.10;87.40;;;;;;5136777;27;20175;-66
2021/04/10 02:18:05;;;;;;;7.13;3.20;;;6.00;87.50;;;;;;5137065;27;20547;-66
2021/04/10 02:20:31;;;;;;;3.58;2.38;;;6.00;88.00;;;;;;5136686;27;20225;-66
2021/04/10 02:22:57;;;;;;;4.03;2.37;;;5.90;88.40;;;;;;5118362;27;20211;-67
2021/04/10 02:25:26;;;;;;;5.80;3.17;;;5.90;88.70;;;;;;5136678;27;20190;-67
2021/04/10 02:27:53;;;;;;;3.53;2.70;;;5.80;89.50;;;;;;5136515;27;20195;-66
2021/04/10 02:30:19;;;;;;;7.25;4.25;;;5.80;89.80;;;;;;5136551;27;20538;-65
2021/04/10 02:33:07;;;;;;;6.10;3.10;;;5.70;90.00;;;;;;5136653;27;20187;-65
2021/04/10 02:35:36;;;;;;;5.00;3.85;;;5.60;90.30;;;;;;5136507;27;20231;-66
2021/04/10 02:38:04;;;;;;;3.80;3.15;;;5.50;90.80;;;;;;5136247;27;20747;-66
2021/04/10 02:43:55;;;;;;;3.75;3.20;;;5.30;91.50;;;;;;5136972;27;20218;-67
2021/04/10 02:46:25;;;;;;;3.67;3.08;;;5.40;91.90;;;;;;5136214;27;20182;-65
2021/04/10 02:49:05;;;;;;;6.03;3.55;;;5.20;92.50;;;;;;5117824;27;20227;-67
2021/04/10 02:51:49;;;;;;;6.25;3.72;;;5.20;92.90;;;;;;5136002;27;20222;-66
2021/04/10 02:54:20;;;;;;;4.18;3.30;;;5.10;93.60;;;;;;5135882;27;20270;-66
2021/04/10 02:56:53;;;;;;;3.95;3.58;;;5.10;93.80;;;;;;5135921;27;20212;-65
2021/04/10 02:59:23;;;;;;;9.23;4.78;;;5.00;94.20;;;;;;5135987;27;20215;-66
2021/04/10 03:01:51;;;;;;;6.95;4.72;;;5.00;94.40;;;;;;5135936;27;20202;-67
2021/04/10 03:04:17;;;;;;;6.63;4.95;;;4.90;94.90;;;;;;5136306;27;20187;-66
2021/04/10 03:06:44;;;;;;;7.93;4.70;;;4.90;95.20;;;;;;5135814;27;20174;-66
2021/04/10 03:09:10;;;;;;;4.57;3.95;;;4.80;95.70;;;;;;5136269;27;20433;-65
2021/04/10 03:11:36;;;;;;;5.65;3.63;;;4.70;96.30;;;;;;5135723;27;20167;-67
2021/04/10 03:14:07;;;;;;;10.17;3.97;;;4.60;96.80;;;;;;5135496;27;20206;-65
2021/04/10 03:16:34;;;;;;;4.28;3.45;;;4.70;97.00;;;;;;5117148;27;20946;-67
2021/04/10 03:19:00;;;;;;;6.43;3.85;;;4.70;97.40;;;;;;5135380;27;20641;-66
2021/04/10 03:21:27;;;;;;;2.40;1.95;;;4.70;97.30;;;;;;5135578;27;20214;-66
2021/04/10 03:23:53;;;;;;;3.40;2.17;;;4.70;97.60;;;;;;5116961;27;20199;-65
2021/04/10 03:26:19;;;;;;;11.07;3.78;;;4.70;97.70;;;;;;5135584;27;20273;-66
2021/04/10 03:28:46;;;;;;;4.03;3.25;;;4.60;97.60;;;;;;5135264;27;20206;-66
2021/04/10 03:31:12;;;;;;;2.55;1.63;;;4.60;97.80;;;;;;5135821;27;20235;-66
2021/04/10 03:33:39;;;;;;;6.88;4.03;;;4.60;98.10;;;;;;5116798;27;20281;-67
2021/04/10 03:36:06;;;;;;;4.95;3.63;;;4.50;98.40;;;;;;5117172;27;20636;-67
2021/04/10 03:38:32;;;;;;;2.72;2.15;;;4.40;98.60;;;;;;5134968;27;20202;-65
2021/04/10 03:41:05;;;;;;;6.95;4.50;;;4.30;99.20;;;;;;5135702;27;20224;-67
2021/04/10 03:43:31;;;;;;;5.47;2.65;;;4.30;99.60;;;;;;5135077;27;20195;-66
2021/04/10 03:45:56;;;;;;;5.63;2.07;;;4.20;99.90;;;;;;5135726;27;20179;-66
2021/04/10 03:48:22;;;;;;;5.10;2.60;;;4.10;99.90;;;;;;5116574;27;20908;-66
2021/04/10 03:50:47;;;;;;;5.70;3.20;;;4.00;99.90;;;;;;5134977;27;20231;-67
2021/04/10 03:53:13;;;;;;;5.37;3.67;;;4.00;99.90;;;;;;5134914;27;20802;-66
2021/04/10 03:55:38;;;;;;;2.53;2.33;;;3.90;99.90;;;;;;5135342;27;20640;-66
2021/04/10 03:58:04;;;;;;;3.67;2.80;;;3.80;99.90;;;;;;5116463;27;20195;-68
2021/04/10 04:00:30;;;;;;;6.20;3.87;;;3.60;99.90;;;;;;5135179;27;20214;-66
2021/04/10 04:02:58;;;;;;;3.88;2.40;;;3.50;99.90;;;;;;5134742;27;20415;-66
2021/04/10 04:05:24;;;;;;;3.33;2.22;;;3.50;99.90;;;;;;5135342;27;20193;-66
2021/04/10 04:07:49;;;;;;;1.90;1.70;;;3.50;99.90;;;;;;5134705;27;20334;-66
2021/04/10 04:10:16;;;;;;;4.40;2.90;;;3.50;99.90;;;;;;5115778;28;20649;-66
2021/04/10 04:12:42;;;;;;;3.13;2.47;;;3.50;99.90;;;;;;5116247;27;20659;-66
2021/04/10 04:15:08;;;;;;;2.40;2.20;;;3.50;99.90;;;;;;5134924;27;20179;-66
2021/04/10 04:17:33;;;;;;;2.60;2.40;;;3.50;99.90;;;;;;5116304;28;20171;-66
2021/04/10 04:19:59;;;;;;;2.57;2.40;;;3.50;99.90;;;;;;5134816;28;20582;-65
2021/04/10 04:22:25;;;;;;;3.50;2.30;;;3.50;99.90;;;;;;5134613;28;20223;-66
2021/04/10 04:24:50;;;;;;;4.87;1.97;;;3.50;99.90;;;;;;5116267;28;20210;-66
2021/04/10 04:27:16;;;;;;;5.67;2.47;;;3.40;99.90;;;;;;5134700;28;20203;-67
2021/04/10 04:29:42;;;;;;;3.20;2.73;;;3.40;99.90;;;;;;5134708;28;20202;-66
2021/04/10 04:32:07;;;;;;;3.00;2.20;;;3.40;99.90;;;;;;5134617;28;20187;-66
2021/04/10 04:34:34;;;;;;;6.40;3.53;;;3.40;99.90;;;;;;5134585;28;20230;-66
2021/04/10 04:37:00;;;;;;;2.20;1.95;;;3.40;99.90;;;;;;5116071;28;20167;-66
2021/04/10 04:39:26;;;;;;;10.17;3.30;;;3.30;99.90;;;;;;5134446;28;20245;-66
2021/04/10 04:41:51;;;;;;;4.20;3.17;;;3.10;99.90;;;;;;5134469;28;20167;-67
2021/04/10 04:44:17;;;;;;;5.50;3.10;;;3.00;99.90;;;;;;5116017;28;20194;-67
2021/04/10 04:46:42;;;;;;;4.07;1.93;;;3.00;99.90;;;;;;5115986;28;20320;-67
2021/04/10 04:49:08;;;;;;;5.07;2.00;;;3.00;99.90;;;;;;5115711;28;20191;-66
2021/04/10 04:51:33;;;;;;;3.70;2.57;;;3.00;99.90;;;;;;5115977;28;20171;-66
2021/04/10 04:53:59;;;;;;;4.40;2.40;;;3.00;99.90;;;;;;5116071;28;20199;-66
2021/04/10 04:56:24;;;;;;;6.93;3.23;;;3.00;99.90;;;;;;5134366;28;20164;-67
2021/04/10 04:58:50;;;;;;;6.03;4.30;;;3.00;99.90;;;;;;5134160;28;20729;-66
2021/04/10 05:01:16;;;;;;;7.60;4.00;;;3.00;99.90;;;;;;5134784;28;20660;-66
2021/04/10 05:03:41;;;;;;;2.97;1.90;;;2.90;99.90;;;;;;5134206;28;20534;-66
2021/04/10 05:06:07;;;;;;;4.57;3.87;;;2.90;99.90;;;;;;5134717;28;20240;-66
2021/04/10 05:08:32;;;;;;;4.43;2.80;;;3.00;99.90;;;;;;5134188;28;20191;-66
2021/04/10 05:10:58;;;;;;;6.70;4.73;;;3.10;99.90;;;;;;5134706;28;20628;-66
2021/04/10 05:13:23;;;;;;;6.30;3.80;;;3.10;99.90;;;;;;5134140;28;20191;-66
2021/04/10 05:15:49;;;;;;;5.10;3.30;;;3.10;99.90;;;;;;5134491;28;20649;-66
2021/04/10 05:18:15;;;;;;;5.83;4.53;;;3.20;99.90;;;;;;5115738;28;20252;-67
2021/04/10 05:20:40;;;;;;;5.93;3.63;;;3.40;99.90;;;;;;5115824;28;20744;-66
2021/04/10 05:23:06;;;;;;;2.50;2.30;;;3.50;99.90;;;;;;5137441;27;20187;-66
2021/04/10 05:25:32;;;;;;;4.30;2.80;;;3.60;99.90;;;;;;5119450;27;20183;-67
2021/04/10 05:27:57;;;;;;;6.00;4.63;;;3.80;99.90;;;;;;5137656;27;20187;-66
2021/04/10 05:30:23;;;;;;;4.30;3.57;;;3.90;99.90;;;;;;5138008;27;20176;-66
2021/04/10 05:32:49;;;;;;;3.97;3.50;;;4.10;99.90;;;;;;5137616;27;20191;-66
2021/04/10 05:35:15;;;;;;;3.83;3.03;;;4.20;99.90;;;;;;5119388;27;20427;-67
2021/04/10 05:37:41;;;;;;;9.90;6.38;;;4.30;99.90;;;;;;5137518;27;20164;-66
2021/04/10 05:40:08;;;;;;;4.93;4.20;;;4.40;99.90;;;;;;5137769;27;20218;-66
2021/04/10 05:42:33;;;;;;;10.85;3.72;;;4.50;99.90;;;;;;5137389;27;20210;-66
2021/04/10 05:44:59;;;;;;;4.83;2.40;;;4.50;99.90;;;;;;5137680;27;20199;-68
2021/04/10 05:47:25;;;;;;;6.47;3.93;;;4.70;99.90;;;;;;5137357;27;20258;-66
2021/04/10 05:49:51;;;;;;;3.40;2.53;;;5.00;99.90;;;;;;5137056;27;20765;-66
2021/04/10 05:52:17;;;;;;;5.03;3.15;;;5.10;99.90;;;;;;5137358;27;20216;-67
2021/04/10 05:54:42;;;;;;;4.20;3.40;;;5.30;99.90;;;;;;5118802;27;20207;-68
2021/04/10 05:57:08;;;;;;;4.57;3.90;;;5.40;99.90;;;;;;5137301;27;20399;-68
2021/04/10 05:59:34;;;;;;;7.27;4.03;;;5.50;99.90;;;;;;5118649;27;20249;-67
2021/04/10 06:02:05;;;;;;;4.33;2.90;;;5.70;99.90;;;;;;5118714;27;20946;-69
2021/04/10 06:04:32;;;;;;;6.85;4.35;;;5.90;99.90;;;;;;5137043;27;20206;-66
2021/04/10 06:06:58;;;;;;;3.40;3.10;;;6.00;99.90;;;;;;5137021;27;20168;-66
2021/04/10 06:09:23;;;;;;;5.83;5.33;;;6.10;99.90;;;;;;5136997;27;20210;-67
2021/04/10 06:11:49;;;;;;;5.50;3.17;;;6.20;99.90;;;;;;5136872;27;20167;-67
2021/04/10 06:14:14;;;;;;;5.43;4.57;;;6.50;99.90;;;;;;5136871;27;20244;-67
2021/04/10 06:16:40;;;;;;;8.90;5.17;;;6.70;99.90;;;;;;5136775;27;20171;-68
2021/04/10 06:19:06;;;;;;;4.33;3.50;;;6.80;99.90;;;;;;5118277;27;20211;-66
2021/04/10 06:21:31;;;;;;;4.87;3.90;;;6.90;99.90;;;;;;5136693;27;20171;-67
2021/04/10 06:23:57;;;;;;;7.57;5.57;;;7.00;99.90;;;;;;5118123;27;20668;-66
2021/04/10 06:26:22;;;;;;;9.60;5.13;;;7.20;99.90;;;;;;5136689;27;20187;-68
2021/04/10 06:28:48;;;;;;;10.10;4.40;;;7.30;99.90;;;;;;5136533;27;20195;-67
2021/04/10 06:31:14;;;;;;;13.17;7.17;;;7.50;99.90;;;;;;5137162;27;20183;-67
2021/04/10 06:33:39;;;;;;;7.93;3.97;;;7.70;99.90;;;;;;5135746;27;20244;-67
2021/04/10 06:36:05;;;;;;;4.87;4.47;;;8.00;99.90;;;;;;5137003;27;20644;-67
2021/04/10 06:38:31;;;;;;;6.77;4.83;;;8.20;99.90;;;;;;5136283;27;20553;-67
2021/04/10 06:40:59;;;;;;;7.00;5.37;;;8.40;99.90;;;;;;5118211;27;20916;-68
2021/04/10 06:43:25;;;;;;;10.65;6.65;;;8.40;99.90;;;;;;5136257;27;20191;-66
2021/04/10 06:45:50;;;;;;;8.60;5.97;;;8.70;99.90;;;;;;5136600;27;20172;-66
2021/04/10 06:48:16;;;;;;;4.10;3.70;;;8.70;99.90;;;;;;5136159;27;20420;-67
2021/04/10 06:50:43;;;;;;;15.07;6.55;;;8.80;99.90;;;;;;5136053;27;20238;-67
2021/04/10 06:53:16;;;;;;;10.35;6.43;;;9.10;99.90;;;;;;5136029;27;20194;-67
2021/04/10 06:55:48;;;;;;;11.65;6.95;;;9.40;99.90;;;;;;5136444;27;20220;-68
2021/04/10 06:58:20;;;;;;;5.75;3.55;;;9.50;99.90;;;;;;5136092;27;20183;-67
2021/04/10 07:00:47;;;;;;;6.72;4.88;;;9.70;99.90;;;;;;5135876;27;20619;-67
2021/04/10 07:03:13;;;;;;;8.77;6.95;;;9.80;99.90;;;;;;5117509;27;20195;-67
2021/04/10 07:05:39;;;;;;;6.70;4.80;;;10.00;99.90;;;;;;5136162;27;20225;-67
2021/04/10 07:08:07;;;;;;;6.68;5.97;;;10.00;99.90;;;;;;5135790;27;20200;-68
2021/04/10 07:10:32;;;;;;;10.50;4.90;;;10.20;99.90;;;;;;5135736;27;20213;-67
2021/04/10 07:12:58;;;;;;;11.70;7.27;;;10.40;99.90;;;;;;5135734;27;20195;-67
2021/04/10 07:15:23;;;;;;;7.83;5.50;;;10.60;98.70;;;;;;5117392;27;20174;-67
2021/04/10 07:17:50;;;;;;;10.33;6.53;;;10.60;98.70;;;;;;5117170;27;20191;-69
2021/04/10 07:20:30;;;;;;;9.05;5.25;;;10.90;98.50;;;;;;5117362;27;20687;-67
2021/04/10 07:22:59;;;;;;;6.07;3.72;;;11.00;96.90;;;;;;5134771;27;20226;-67
2021/04/10 07:25:27;;;;;;;6.13;4.78;;;11.30;96.70;;;;;;5134320;27;20624;-67
2021/04/10 07:27:53;;;;;;;8.30;4.40;;;11.40;96.00;;;;;;5135056;27;20663;-68
2021/04/10 07:30:20;;;;;;;20.17;9.40;;;11.50;94.90;;;;;;5135726;27;20235;-67
2021/04/10 07:32:46;;;;;;;14.55;5.90;;;11.50;94.70;;;;;;5133370;27;20465;-68
2021/04/10 07:35:17;;;;;;;9.80;6.10;;;11.80;94.10;;;;;;5133419;27;20262;-68
2021/04/10 07:37:49;;;;;;;10.60;6.30;;;12.00;93.60;;;;;;5114514;27;20814;-68
2021/04/10 07:40:26;;;;;;;10.13;6.47;;;12.20;93.50;;;;;;5114494;27;20250;-67
2021/04/10 07:42:53;;;;;;;8.00;4.90;;;12.40;91.70;;;;;;5132864;27;20201;-67
2021/04/10 07:45:24;;;;;;;8.60;4.83;;;12.60;91.10;;;;;;5132268;27;20457;-68
2021/04/10 07:47:50;;;;;;;5.63;4.30;;;12.60;90.90;;;;;;5134405;27;20475;-67
2021/04/10 07:50:19;;;;;;;4.43;3.97;;;12.80;89.80;;;;;;5134922;27;20861;-67
2021/04/10 07:52:44;;;;;;;4.57;3.97;;;13.10;90.20;;;;;;5116563;27;20420;-67
2021/04/10 07:55:37;;;;;;;2.63;2.40;;;13.40;89.80;;;;;;5135174;27;20442;-67
2021/04/10 07:58:35;;;;;;;8.87;4.40;;;13.00;89.70;;;;;;5135044;27;20189;-69
2021/04/10 08:01:00;;;;;;;9.67;3.90;;;13.40;88.70;;;;;;5116583;27;20530;-68
2021/04/10 08:03:50;;;;;;;5.50;3.80;;;13.60;85.30;;;;;;5116505;27;20537;-67
2021/04/10 08:06:20;;;;;;;5.80;4.53;;;13.80;84.00;;;;;;5116308;27;20187;-67
2021/04/10 08:08:52;;;;;;;5.57;4.03;;;14.20;82.70;;;;;;5134724;27;20916;-69
2021/04/10 08:11:34;;;;;;;5.90;4.13;;;14.40;82.60;;;;;;5134638;27;20487;-67
2021/04/10 08:14:13;;;;;;;4.83;2.90;;;14.40;79.50;;;;;;5134751;27;20873;-70
2021/04/10 08:16:44;;;;;;;9.03;4.30;;;14.40;80.10;;;;;;5134778;27;20755;-68
2021/04/10 08:19:10;;;;;;;7.20;3.93;;;14.50;80.60;;;;;;5116163;28;20474;-68
2021/04/10 08:21:39;;;;;;;5.10;3.30;;;14.50;80.90;;;;;;5116135;28;20419;-68
2021/04/10 08:24:43;;;;;;;1.97;1.60;;;14.90;80.00;;;;;;5116156;28;20423;-69
2021/04/10 08:27:13;;;;;;;7.53;5.00;;;15.20;76.50;;;;;;5093152;28;20427;-70
2021/04/10 08:29:41;;;;;;;2.33;1.93;;;15.00;74.90;;;;;;5134650;28;20427;-69
2021/04/10 08:32:08;;;;;;;3.43;1.70;;;15.60;76.50;;;;;;5134497;28;20403;-69
2021/04/10 08:34:34;;;;;;;1.47;1.37;;;15.40;74.90;;;;;;5116185;28;20454;-65
2021/04/10 08:37:02;;;;;;;1.20;1.20;;;15.40;76.00;;;;;;5134496;28;20396;-65
2021/04/10 08:39:35;;;;;;;2.37;2.03;;;15.40;77.40;;;;;;5115898;28;20477;-66
2021/04/10 08:42:02;;;;;;;2.47;2.00;;;15.60;77.00;;;;;;5134517;28;20403;-65
2021/04/10 08:44:34;;;;;;;2.70;1.60;;;15.70;74.20;;;;;;5134447;28;20435;-65
2021/04/10 08:47:00;;;;;;;3.07;1.93;;;16.30;74.10;;;;;;5116060;28;20459;-66
2021/04/10 08:49:30;;;;;;;1.70;1.60;;;16.60;74.10;;;;;;5134367;28;20475;-66
2021/04/10 08:52:01;;;;;;;3.37;1.97;;;16.70;72.50;;;;;;5134372;28;20388;-66
2021/04/10 08:54:31;;;;;;;1.97;1.50;;;17.30;72.10;;;;;;5134401;28;20427;-66
2021/04/10 08:56:56;;;;;;;2.37;2.17;;;16.80;69.80;;;;;;5136114;27;20756;-66
2021/04/10 08:59:22;;;;;;;1.90;1.80;;;16.60;70.10;;;;;;5119789;27;20479;-66
2021/04/10 09:02:12;;;;;;;1.70;1.60;;;17.80;68.90;;;;;;5138287;27;20253;-68
2021/04/10 09:04:53;;;;;;;2.73;1.70;;;17.00;68.60;;;;;;5119828;27;20696;-67
2021/04/10 09:07:19;;;;;;;2.50;1.90;;;16.90;68.50;;;;;;5138131;27;20927;-67
2021/04/10 09:09:47;;;;;;;2.60;2.40;;;16.80;68.30;;;;;;5138258;27;20531;-68
2021/04/10 09:12:25;;;;;;;1.97;1.83;;;16.90;68.10;;;;;;5138378;27;20170;-67
2021/04/10 09:14:51;;;;;;;1.87;1.33;;;16.70;67.70;;;;;;5138274;27;20413;-66
2021/04/10 09:17:17;;;;;;;3.03;1.57;;;16.80;67.90;;;;;;5119578;27;20417;-68
2021/04/10 09:19:43;;;;;;;2.50;1.80;;;16.80;67.00;;;;;;5137928;27;20260;-66
2021/04/10 09:22:16;;;;;;;2.50;1.80;;;16.90;67.30;;;;;;5137977;27;20182;-67
2021/04/10 09:24:50;;;;;;;2.00;1.67;;;16.70;68.70;;;;;;5137980;27;20502;-67
2021/04/10 09:27:25;;;;;;;2.50;1.70;;;16.70;68.20;;;;;;5137949;27;20404;-67
2021/04/10 09:30:02;;;;;;;1.90;1.50;;;16.40;69.60;;;;;;5138015;27;20440;-66
2021/04/10 09:32:29;;;;;;;1.73;1.60;;;16.10;71.10;;;;;;5137738;27;20549;-66
2021/04/10 09:34:56;;;;;;;2.63;1.70;;;16.60;70.70;;;;;;5137771;27;20465;-68
2021/04/10 09:37:21;;;;;;;3.00;1.63;;;16.40;69.60;;;;;;5137603;27;20413;-67
2021/04/10 09:39:50;;;;;;;3.40;2.43;;;16.40;68.50;;;;;;5119047;27;20475;-66
2021/04/10 09:42:37;;;;;;;2.90;1.53;;;16.40;68.20;;;;;;5137584;27;20673;-67
2021/04/10 09:45:29;;;;;;;3.00;2.13;;;16.70;68.60;;;;;;5137720;27;20481;-66
2021/04/10 09:47:55;;;;;;;2.00;1.80;;;16.80;67.20;;;;;;5137390;27;20438;-66
2021/04/10 09:50:25;;;;;;;1.47;1.20;;;17.00;67.80;;;;;;5137256;27;20465;-66
2021/04/10 09:52:56;;;;;;;2.23;1.83;;;16.50;66.70;;;;;;5137368;27;20201;-66
2021/04/10 09:55:23;;;;;;;3.13;2.10;;;16.80;66.70;;;;;;5137299;27;20432;-67
2021/04/10 09:57:55;;;;;;;2.43;1.80;;;16.80;66.20;;;;;;5118741;27;20465;-68
2021/04/10 10:00:25;;;;;;;1.87;1.77;;;17.00;66.60;;;;;;5137450;27;20482;-67
2021/04/10 10:02:54;;;;;;;2.33;1.80;;;17.30;66.20;;;;;;5137000;27;20418;-66
2021/04/10 10:05:21;;;;;;;4.57;2.67;;;17.10;65.20;;;;;;5118849;27;20809;-67
2021/04/10 10:07:47;;;;;;;3.30;2.13;;;17.00;66.70;;;;;;5136044;27;20541;-67
2021/04/10 10:10:14;;;;;;;3.40;2.50;;;17.00;66.10;;;;;;5137101;27;20429;-66
2021/04/10 10:12:40;;;;;;;1.47;1.33;;;16.80;65.60;;;;;;5136841;27;20480;-67
2021/04/10 10:15:21;;;;;;;5.40;3.17;;;16.90;66.60;;;;;;5137196;27;20439;-66
2021/04/10 10:17:46;;;;;;;3.00;2.30;;;17.20;65.10;;;;;;5136767;27;20425;-67
2021/04/10 10:20:14;;;;;;;2.73;2.53;;;17.30;65.10;;;;;;5136958;27;20947;-67
2021/04/10 10:22:40;;;;;;;4.57;2.90;;;17.30;65.30;;;;;;5118213;27;20173;-68
2021/04/10 10:25:07;;;;;;;3.10;2.20;;;16.80;65.50;;;;;;5118312;27;20424;-67
2021/04/10 10:27:39;;;;;;;2.67;2.47;;;17.00;65.20;;;;;;5136565;27;20405;-66
2021/04/10 10:30:18;;;;;;;4.03;2.70;;;16.90;65.80;;;;;;5137019;27;20540;-66
2021/04/10 10:32:49;;;;;;;5.67;4.27;;;17.10;66.20;;;;;;5118111;27;20432;-67
2021/04/10 10:35:16;;;;;;;7.10;3.60;;;16.90;64.50;;;;;;5136840;27;20417;-67
2021/04/10 10:37:48;;;;;;;2.67;2.13;;;17.50;64.60;;;;;;5136365;27;20789;-68
2021/04/10 10:40:21;;;;;;;2.80;2.13;;;17.40;64.10;;;;;;5117945;27;20483;-68
2021/04/10 10:43:05;;;;;;;1.63;1.50;;;17.40;64.40;;;;;;5126722;27;20446;-66
2021/04/10 10:45:51;;;;;;;2.97;1.90;;;17.00;65.50;;;;;;5115985;28;20429;-66
2021/04/10 10:48:19;;;;;;;1.70;1.53;;;16.90;65.50;;;;;;5114238;28;20807;-67
2021/04/10 10:50:45;;;;;;;1.93;1.63;;;17.00;65.20;;;;;;5097304;28;20496;-67
2021/04/10 10:53:12;;;;;;;2.23;2.03;;;17.50;65.30;;;;;;5114270;28;20442;-66
2021/04/10 10:56:00;;;;;;;1.60;1.50;;;17.20;65.00;;;;;;5115215;28;20505;-67
2021/04/10 10:58:30;;;;;;;1.10;1.00;;;17.50;64.60;;;;;;5094955;28;20446;-66
2021/04/10 11:00:55;;;;;;;1.30;1.07;;;17.50;64.50;;;;;;5113086;28;20475;-68
2021/04/10 11:03:22;;;;;;;1.70;1.60;;;17.80;64.40;;;;;;5113139;28;20782;-66
2021/04/10 11:05:49;;;;;;;1.57;1.40;;;17.50;63.80;;;;;;5113615;28;20172;-67
2021/04/10 11:08:19;;;;;;;6.17;2.57;;;17.60;64.40;;;;;;5094780;28;20513;-66
2021/04/10 11:10:45;;;;;;;3.00;2.00;;;17.80;64.60;;;;;;5113036;28;20905;-66
2021/04/10 11:13:13;;;;;;;3.93;1.90;;;17.80;64.60;;;;;;5114291;28;20424;-67
2021/04/10 11:15:41;;;;;;;3.00;1.93;;;17.80;64.80;;;;;;5115287;28;20414;-67
2021/04/10 11:18:23;;;;;;;2.00;1.90;;;17.60;64.70;;;;;;5115020;28;20425;-65
2021/04/10 11:20:48;;;;;;;2.77;1.60;;;17.80;64.10;;;;;;5115197;28;20572;-66
2021/04/10 11:23:14;;;;;;;4.03;2.30;;;17.70;65.00;;;;;;5114951;28;20457;-66
2021/04/10 11:25:53;;;;;;;5.03;2.30;;;17.90;64.50;;;;;;5115361;28;20179;-66
2021/04/10 11:28:26;;;;;;;3.00;1.70;;;17.60;64.20;;;;;;5114919;28;20197;-67
2021/04/10 11:31:08;;;;;;;5.73;1.80;;;17.90;64.50;;;;;;5115291;28;20430;-66
2021/04/10 11:33:35;;;;;;;2.03;1.70;;;17.90;64.50;;;;;;5114791;28;20463;-67
2021/04/10 11:36:01;;;;;;;1.40;1.20;;;18.30;64.10;;;;;;5113778;28;20924;-68
2021/04/10 11:38:27;;;;;;;3.80;1.73;;;17.90;63.90;;;;;;5114594;28;20455;-67
2021/04/10 11:40:52;;;;;;;2.43;1.40;;;18.20;64.30;;;;;;5114913;28;20561;-66
2021/04/10 11:43:18;;;;;;;2.80;1.70;;;17.80;64.40;;;;;;5114607;28;20721;-66
2021/04/10 11:45:47;;;;;;;3.90;1.73;;;18.00;64.30;;;;;;5096562;28;20187;-67
2021/04/10 11:48:22;;;;;;;3.27;1.80;;;18.40;63.30;;;;;;5096390;28;20239;-66
2021/04/10 11:50:53;;;;;;;2.57;2.17;;;18.40;63.50;;;;;;5114482;28;20472;-66
2021/04/10 11:53:26;;;;;;;2.57;2.13;;;18.20;64.40;;;;;;5114402;28;20430;-66
2021/04/10 11:55:52;;;;;;;3.13;2.10;;;18.40;63.50;;;;;;5114431;28;20419;-67
2021/04/10 11:58:35;;;;;;;1.87;1.63;;;18.30;64.00;;;;;;5114412;28;20415;-66
2021/04/10 12:01:07;;;;;;;2.27;1.77;;;18.50;64.80;;;;;;5096335;28;20449;-66
2021/04/10 12:03:33;;;;;;;3.00;1.87;;;18.60;62.80;;;;;;5095977;28;20443;-67
2021/04/10 12:05:59;;;;;;;1.90;1.37;;;18.70;63.90;;;;;;5096476;28;20431;-67
2021/04/10 12:08:27;;;;;;;3.83;2.07;;;18.90;62.20;;;;;;5095983;28;20424;-67
2021/04/10 12:11:00;;;;;;;3.07;1.97;;;19.10;61.50;;;;;;5114176;28;20193;-67
2021/04/10 12:13:27;;;;;;;2.10;1.90;;;18.70;62.10;;;;;;5114148;28;20434;-67
2021/04/10 12:15:58;;;;;;;5.07;3.70;;;18.40;62.50;;;;;;5114618;28;20697;-67
2021/04/10 12:18:27;;;;;;;1.60;1.43;;;18.80;62.40;;;;;;5114068;28;20431;-67
2021/04/10 12:20:55;;;;;;;3.20;1.70;;;19.00;62.80;;;;;;5114441;28;20980;-66
2021/04/10 12:23:21;;;;;;;2.10;1.90;;;19.10;61.60;;;;;;5114061;28;20426;-67
2021/04/10 12:25:47;;;;;;;6.70;2.20;;;19.20;61.50;;;;;;5114016;28;20518;-67
2021/04/10 12:28:14;;;;;;;2.60;2.40;;;19.30;61.00;;;;;;5114074;28;20250;-66
2021/04/10 12:30:40;;;;;;;2.67;2.47;;;19.60;60.90;;;;;;5096000;28;20511;-66
2021/04/10 12:33:05;;;;;;;2.27;2.07;;;19.50;60.50;;;;;;5117809;28;20507;-66
2021/04/10 12:35:31;;;;;;;5.37;2.33;;;19.50;60.30;;;;;;5118582;28;20432;-65
2021/04/10 12:37:56;;;;;;;3.73;3.37;;;18.80;61.20;;;;;;5118205;28;20187;-68
2021/04/10 12:40:23;;;;;;;2.10;1.90;;;19.30;60.80;;;;;;5118129;28;20242;-66
2021/04/10 12:42:49;;;;;;;1.97;1.87;;;19.20;60.60;;;;;;5118127;28;20199;-66
2021/04/10 12:45:15;;;;;;;3.57;3.13;;;19.10;60.40;;;;;;5118341;28;20765;-67
2021/04/10 12:47:43;;;;;;;2.00;1.60;;;19.30;59.80;;;;;;5099606;28;20944;-66
2021/04/10 12:50:11;;;;;;;7.53;6.10;;;19.70;59.20;;;;;;5117841;28;20818;-66
2021/04/10 12:52:36;;;;;;;3.60;2.10;;;19.30;59.70;;;;;;5117771;28;20483;-66
2021/04/10 12:55:06;;;;;;;3.70;2.23;;;19.40;58.50;;;;;;5118201;28;20508;-67
2021/04/10 12:57:33;;;;;;;3.10;2.80;;;19.40;58.30;;;;;;5117871;28;20709;-66
2021/04/10 12:59:58;;;;;;;2.43;2.07;;;18.90;58.80;;;;;;5118202;28;20802;-67
2021/04/10 13:02:24;;;;;;;1.63;1.53;;;19.30;59.00;;;;;;5099455;28;20423;-67
2021/04/10 13:04:50;;;;;;;2.60;1.87;;;19.40;59.20;;;;;;5117829;28;20184;-67